Time;durP1;ratioP1;P1;durP2;ratioP2;P2;SDS_P1;SDS_P2;PMS_P1;PMS_P2;Temp;Humidity;BMP_temperature;BMP_pressure;BME280_temperature;BME280_humidity;BME280_pressure;Samples;Min_cycle;Max_cycle;Signal;HPM_P1;HPM_P2
2022/06/08 00:01:12;;;;;;;7.18;5.25;;;;;;;15.02;81.63;101123.69;5028479;28;20029;-79
2022/06/08 00:03:45;;;;;;;8.68;5.70;;;;;;;15.05;81.65;101121.25;5026547;28;20029;-79
2022/06/08 00:06:11;;;;;;;8.02;4.82;;;;;;;15.09;82.02;101121.56;5028902;28;20040;-79
2022/06/08 00:08:37;;;;;;;8.68;5.03;;;;;;;15.10;82.38;101117.78;5025404;28;20052;-79
2022/06/08 00:11:03;;;;;;;7.38;4.93;;;;;;;15.11;82.63;101122.09;5029801;28;20479;-78
2022/06/08 00:13:29;;;;;;;9.82;5.75;;;;;;;15.11;83.00;101120.22;5024606;28;20407;-79
2022/06/08 00:15:55;;;;;;;12.68;5.47;;;;;;;15.18;82.18;101124.53;5022316;28;20028;-79
2022/06/08 00:18:21;;;;;;;7.07;5.15;;;;;;;15.15;82.46;101122.38;5021981;28;20104;-79
2022/06/08 00:20:46;;;;;;;5.78;4.78;;;;;;;15.06;83.14;101114.78;5021096;28;20028;-79
2022/06/08 00:23:13;;;;;;;10.30;4.82;;;;;;;15.07;83.06;101123.69;5023944;28;20025;-79
2022/06/08 00:25:39;;;;;;;7.55;5.32;;;;;;;15.07;82.84;101123.69;5026245;28;20030;-79
2022/06/08 00:28:05;;;;;;;8.18;4.55;;;;;;;14.98;83.02;101123.44;5026357;28;20929;-79
2022/06/08 00:30:31;;;;;;;9.80;6.20;;;;;;;14.98;83.15;101126.13;5026629;28;20024;-79
2022/06/08 00:32:56;;;;;;;8.35;5.30;;;;;;;15.02;83.01;101131.78;5024630;28;20691;-79
2022/06/08 00:35:22;;;;;;;6.75;5.35;;;;;;;15.09;82.65;101129.66;5022904;28;20064;-79
2022/06/08 00:37:48;;;;;;;9.10;6.05;;;;;;;15.07;82.79;101124.50;5024632;28;20025;-78
2022/06/08 00:40:17;;;;;;;8.88;5.13;;;;;;;15.12;82.66;101115.63;5025399;28;20026;-79
2022/06/08 00:42:43;;;;;;;11.00;5.72;;;;;;;15.16;82.56;101118.59;5022632;28;20163;-79
2022/06/08 00:45:15;;;;;;;10.93;5.78;;;;;;;15.15;82.24;101115.09;5018452;28;20033;-79
2022/06/08 00:47:54;;;;;;;6.50;5.28;;;;;;;15.17;81.91;101117.50;5019441;28;20480;-79
2022/06/08 00:50:24;;;;;;;7.15;4.95;;;;;;;15.22;80.88;101121.00;5018706;28;20036;-79
2022/06/08 00:52:51;;;;;;;7.55;5.25;;;;;;;15.27;80.72;101112.13;5021333;28;20102;-79
2022/06/08 00:55:19;;;;;;;9.75;6.00;;;;;;;15.20;81.05;101106.97;5024598;28;20029;-79
2022/06/08 00:57:56;;;;;;;11.15;5.10;;;;;;;15.09;81.79;101111.56;5023716;28;20029;-79
2022/06/08 01:00:28;;;;;;;12.68;6.03;;;;;;;14.99;82.54;101111.56;5023348;28;20476;-79
2022/06/08 01:02:54;;;;;;;8.07;5.40;;;;;;;14.95;82.67;101115.88;5024899;28;20029;-79
2022/06/08 01:05:25;;;;;;;10.30;5.65;;;;;;;14.88;82.74;101115.31;5017501;28;20053;-78
2022/06/08 01:07:54;;;;;;;11.50;6.10;;;;;;;14.80;83.21;101113.97;5024944;28;20545;-79
2022/06/08 01:10:26;;;;;;;8.85;6.30;;;;;;;14.77;83.76;101108.28;5027504;28;20029;-79
2022/06/08 01:12:52;;;;;;;10.90;7.05;;;;;;;14.76;84.30;101110.19;5024340;28;20395;-79
2022/06/08 01:15:22;;;;;;;10.43;6.90;;;;;;;14.77;84.74;101116.38;5024792;28;20029;-79
2022/06/08 01:17:48;;;;;;;8.73;6.38;;;;;;;14.80;85.14;101111.25;5021863;28;20084;-79
2022/06/08 01:20:14;;;;;;;14.55;7.07;;;;;;;14.88;85.08;101109.09;5023143;28;20025;-79
2022/06/08 01:22:40;;;;;;;7.95;6.32;;;;;;;14.96;84.87;101114.00;5026724;28;20438;-79
2022/06/08 01:25:08;;;;;;;12.02;6.65;;;;;;;15.02;84.80;101110.22;5021717;28;20053;-79
2022/06/08 01:27:48;;;;;;;8.05;6.43;;;;;;;15.04;85.19;101108.03;5025700;28;20017;-79
2022/06/08 01:30:37;;;;;;;7.43;6.68;;;;;;;15.06;85.33;101108.59;5023890;28;20026;-79
2022/06/08 01:33:12;;;;;;;11.13;6.57;;;;;;;15.07;85.43;101102.09;5023142;28;20021;-79
2022/06/08 01:36:03;;;;;;;8.02;6.55;;;;;;;15.03;85.64;101099.13;5022427;28;20025;-79
2022/06/08 01:38:53;;;;;;;9.95;6.55;;;;;;;15.04;86.39;101086.47;5023869;28;20043;-79
2022/06/08 01:41:29;;;;;;;8.23;6.35;;;;;;;15.05;86.25;101088.06;5020568;28;20116;-79
2022/06/08 01:44:16;;;;;;;14.00;7.45;;;;;;;15.07;86.40;101083.22;5024554;28;20025;-79
2022/06/08 01:47:20;;;;;;;11.15;6.82;;;;;;;15.09;86.57;101083.78;5024600;28;20088;-79
2022/06/08 01:50:10;;;;;;;10.32;7.10;;;;;;;15.16;86.21;101076.22;5023337;28;20036;-79
2022/06/08 01:52:59;;;;;;;12.48;6.25;;;;;;;15.24;85.91;101081.06;5024148;28;20030;-79
2022/06/08 01:55:49;;;;;;;9.10;7.10;;;;;;;15.26;85.70;101078.09;5018986;28;20025;-79
2022/06/08 01:58:48;;;;;;;8.15;6.75;;;;;;;15.30;85.51;101071.09;5020603;28;20040;-79
2022/06/08 02:01:22;;;;;;;8.30;6.38;;;;;;;15.32;85.73;101068.91;5021676;28;20041;-79
2022/06/08 02:04:16;;;;;;;8.38;6.60;;;;;;;15.32;86.15;101066.22;5019685;28;20041;-78
2022/06/08 02:06:49;;;;;;;16.40;7.53;;;;;;;15.32;85.98;101064.31;5016029;28;20041;-79
2022/06/08 02:09:36;;;;;;;10.15;6.88;;;;;;;15.26;86.54;101061.88;5021651;28;20033;-79
2022/06/08 02:12:09;;;;;;;10.55;7.85;;;;;;;15.19;86.89;101067.56;5022856;28;20102;-78
2022/06/08 02:14:44;;;;;;;12.02;7.85;;;;;;;15.15;86.76;101071.91;5013111;28;20618;-79
2022/06/08 02:17:09;;;;;;;12.13;7.40;;;;;;;15.11;87.18;101068.94;5019987;28;20049;-79
2022/06/08 02:19:46;;;;;;;10.48;7.55;;;;;;;14.99;87.51;101072.97;5022024;28;20060;-79
2022/06/08 02:22:22;;;;;;;14.40;7.65;;;;;;;14.99;87.70;101075.66;5021219;28;20107;-78
2022/06/08 02:24:57;;;;;;;10.43;7.35;;;;;;;15.00;87.71;101078.09;5019929;28;20029;-79
2022/06/08 02:27:27;;;;;;;10.52;7.22;;;;;;;15.04;87.44;101078.38;5018436;28;20575;-79
2022/06/08 02:30:06;;;;;;;10.93;7.20;;;;;;;15.06;87.09;101071.63;5020467;28;20028;-79
2022/06/08 02:35:39;;;;;;;9.50;6.60;;;;;;;15.12;86.92;101072.44;5027902;28;20084;-79
2022/06/08 02:38:11;;;;;;;8.65;7.78;;;;;;;15.15;86.78;101071.91;5030821;28;20028;-79
2022/06/08 02:40:43;;;;;;;6.97;6.07;;;;;;;15.18;86.90;101065.94;5027165;28;20028;-79
2022/06/08 02:43:17;;;;;;;8.18;7.35;;;;;;;15.19;87.01;101072.97;5025937;28;20113;-79
2022/06/08 02:45:45;;;;;;;9.07;7.45;;;;;;;15.18;86.94;101067.84;5025062;28;20063;-78
2022/06/08 02:48:14;;;;;;;8.15;6.80;;;;;;;15.15;87.03;101065.69;5022926;28;20025;-78
2022/06/08 02:50:56;;;;;;;10.70;6.68;;;;;;;15.12;87.54;101072.44;5023491;28;20034;-79
2022/06/08 02:53:22;;;;;;;7.95;7.15;;;;;;;15.18;87.17;101073.25;5027996;28;20030;-79
2022/06/08 02:56:06;;;;;;;8.50;6.45;;;;;;;15.20;87.22;101063.78;5024555;28;20050;-79
2022/06/08 02:58:54;;;;;;;8.43;6.90;;;;;;;15.24;87.05;101069.44;5027983;28;20545;-79
2022/06/08 03:01:32;;;;;;;7.00;6.30;;;;;;;15.29;86.87;101072.97;5026289;28;20028;-78
2022/06/08 03:04:04;;;;;;;9.45;6.47;;;;;;;15.33;86.75;101071.34;5026587;28;20056;-79
2022/06/08 03:06:54;;;;;;;9.10;7.22;;;;;;;15.33;87.15;101074.03;5024182;28;20036;-79
2022/06/08 03:09:22;;;;;;;8.45;7.57;;;;;;;15.33;87.42;101074.03;5021098;28;20073;-79
2022/06/08 03:11:54;;;;;;;10.88;7.72;;;;;;;15.33;87.82;101067.84;5020719;28;21755;-79
2022/06/08 03:14:21;;;;;;;8.05;6.88;;;;;;;15.31;87.94;101070.81;5026895;28;20075;-79
2022/06/08 03:16:56;;;;;;;9.50;7.75;;;;;;;15.31;87.83;101073.50;5022346;28;21170;-79
2022/06/08 03:19:23;;;;;;;7.95;6.13;;;;;;;15.33;87.89;101067.84;5025166;28;20108;-78
2022/06/08 03:21:48;;;;;;;7.00;6.30;;;;;;;15.35;88.10;101071.88;5024902;28;20029;-79
2022/06/08 03:24:15;;;;;;;10.38;6.28;;;;;;;15.37;88.15;101074.31;5026009;28;20025;-79
2022/06/08 03:26:46;;;;;;;9.88;7.03;;;;;;;15.38;87.84;101079.44;5025495;28;20032;-79
2022/06/08 03:29:12;;;;;;;9.88;6.85;;;;;;;15.39;87.92;101077.53;5024337;28;20049;-79
2022/06/08 03:31:37;;;;;;;7.40;6.05;;;;;;;15.40;87.95;101074.56;5024776;28;20100;-78
2022/06/08 03:34:03;;;;;;;9.50;7.43;;;;;;;15.45;88.03;101070.25;5029650;28;20024;-79
2022/06/08 03:36:28;;;;;;;7.97;7.00;;;;;;;15.47;88.02;101068.91;5028544;28;20033;-79
2022/06/08 03:38:54;;;;;;;7.47;6.57;;;;;;;15.49;87.96;101066.75;5030179;28;20057;-79
2022/06/08 03:41:20;;;;;;;9.65;6.63;;;;;;;15.52;87.85;101068.06;5022439;28;20060;-79
2022/06/08 03:43:45;;;;;;;10.57;6.25;;;;;;;15.58;87.35;101064.28;5027619;28;20021;-79
2022/06/08 03:46:11;;;;;;;12.05;6.65;;;;;;;15.64;86.72;101058.63;5026343;28;20033;-79
2022/06/08 03:48:39;;;;;;;8.30;6.18;;;;;;;15.65;86.49;101075.66;5025941;28;20025;-78
2022/06/08 03:51:07;;;;;;;6.93;5.88;;;;;;;15.68;85.94;101077.81;5026226;28;20446;-79
2022/06/08 03:53:43;;;;;;;8.27;6.18;;;;;;;15.66;85.91;101088.88;5027274;28;21795;-79
2022/06/08 03:56:11;;;;;;;8.30;6.53;;;;;;;15.65;86.12;101094.56;5020867;28;20426;-79
2022/06/08 03:58:36;;;;;;;6.88;6.15;;;;;;;15.61;86.40;101090.75;5029139;28;20049;-79
2022/06/08 04:01:03;;;;;;;7.57;6.50;;;;;;;15.64;86.16;101096.47;5028472;28;20049;-78
2022/06/08 04:03:30;;;;;;;9.05;6.60;;;;;;;15.64;86.10;101095.66;5024564;28;20095;-79
2022/06/08 04:05:58;;;;;;;7.05;6.38;;;;;;;15.66;86.21;101096.19;5024052;28;20025;-79
2022/06/08 04:08:24;;;;;;;10.80;7.05;;;;;;;15.70;86.43;101091.84;5027207;28;20392;-79
2022/06/08 04:10:51;;;;;;;7.45;6.32;;;;;;;15.71;86.38;101086.16;5023891;28;20029;-79
2022/06/08 04:13:17;;;;;;;9.55;7.18;;;;;;;15.73;86.52;101091.28;5026862;28;20036;-79
2022/06/08 04:15:43;;;;;;;9.88;7.05;;;;;;;15.77;86.73;101089.66;5021584;28;20025;-78
2022/06/08 04:18:17;;;;;;;9.45;6.90;;;;;;;15.78;86.63;101093.97;5027707;28;20040;-79
2022/06/08 04:20:45;;;;;;;8.60;6.97;;;;;;;15.79;86.69;101086.66;5023684;28;20025;-79
2022/06/08 04:23:12;;;;;;;8.27;6.97;;;;;;;15.83;86.46;101093.97;5030293;28;20164;-79
2022/06/08 04:25:41;;;;;;;9.15;6.82;;;;;;;15.80;86.65;101088.28;5021042;28;20026;-79
2022/06/08 04:28:06;;;;;;;7.85;6.95;;;;;;;15.81;86.73;101084.53;5025070;28;20025;-79
2022/06/08 04:30:33;;;;;;;9.60;7.25;;;;;;;15.85;86.58;101091.00;5027025;28;20030;-79
2022/06/08 04:32:58;;;;;;;8.55;7.10;;;;;;;15.85;86.26;101080.19;5027060;28;20048;-79
2022/06/08 04:35:25;;;;;;;7.50;6.75;;;;;;;15.91;85.79;101095.28;5026643;28;20913;-79
2022/06/08 04:37:52;;;;;;;9.40;6.93;;;;;;;15.94;85.97;101083.94;5023131;28;20110;-79
2022/06/08 04:40:18;;;;;;;9.30;7.30;;;;;;;15.98;86.03;101091.22;5030611;28;20048;-79
2022/06/08 04:42:44;;;;;;;9.63;6.35;;;;;;;15.95;86.05;101080.94;5024765;28;20084;-79
2022/06/08 04:45:11;;;;;;;8.65;6.57;;;;;;;15.96;85.66;101082.56;5030683;28;20024;-79
2022/06/08 04:47:37;;;;;;;10.93;7.32;;;;;;;16.01;85.85;101074.47;5025747;28;20033;-79
2022/06/08 04:50:04;;;;;;;8.30;7.05;;;;;;;16.05;85.30;101079.31;5027134;28;20022;-79
2022/06/08 04:52:30;;;;;;;10.63;6.93;;;;;;;16.13;85.20;101086.84;5021920;28;20033;-79
2022/06/08 04:54:56;;;;;;;8.52;6.80;;;;;;;16.12;85.86;101088.72;5028464;28;20032;-79
2022/06/08 04:57:21;;;;;;;10.95;6.82;;;;;;;16.16;85.78;101087.13;5027153;28;20064;-79
2022/06/08 04:59:47;;;;;;;7.68;6.10;;;;;;;16.20;85.77;101085.47;5024933;28;20030;-79
2022/06/08 05:02:42;;;;;;;7.00;6.05;;;;;;;16.26;86.06;101080.84;5021526;28;20021;-79
2022/06/08 05:04:58;;;;;;;7.05;6.00;;;;;;;16.39;85.92;101085.66;5022268;28;20029;-78
2022/06/08 05:09:49;;;;;;;7.35;6.10;;;;;;;16.61;85.54;101088.75;5050473;22;20056;-40
2022/06/08 05:12:14;;;;;;;9.13;6.55;;;;;;;16.73;84.82;101090.34;5020821;28;20033;-41
2022/06/08 05:14:40;;;;;;;6.75;6.15;;;;;;;16.85;84.57;101088.09;5020402;28;20456;-41
2022/06/08 05:17:06;;;;;;;7.25;6.00;;;;;;;16.95;83.87;101082.63;5006195;28;20030;-41
2022/06/08 05:19:31;;;;;;;9.40;6.50;;;;;;;17.02;82.68;101085.00;5001971;28;20017;-41
2022/06/08 05:21:57;;;;;;;6.68;5.30;;;;;;;17.03;81.10;101084.69;5017825;23;20048;-49
2022/06/08 05:24:22;;;;;;;6.05;5.47;;;;;;;17.14;80.36;101088.16;5040367;28;20048;-48
2022/06/08 05:26:48;;;;;;;8.63;5.60;;;;;;;17.21;79.66;101084.00;5041813;28;20021;-49
2022/06/08 05:29:13;;;;;;;5.60;5.10;;;;;;;17.29;78.98;101082.59;5038473;28;20477;-48
2022/06/08 05:31:39;;;;;;;5.15;4.65;;;;;;;17.37;78.21;101083.88;5039283;28;20056;-49
2022/06/08 05:34:04;;;;;;;6.95;6.25;;;;;;;17.42;77.98;101081.94;5017457;28;20026;-48
2022/06/08 05:36:30;;;;;;;30.20;22.02;;;;;;;17.50;77.76;101078.59;5015375;28;20415;-47
2022/06/08 05:38:55;;;;;;;10.68;8.52;;;;;;;17.57;77.62;101078.25;5014148;28;20029;-47
2022/06/08 05:41:21;;;;;;;6.05;5.30;;;;;;;17.65;76.64;101088.50;5016010;28;20102;-48
2022/06/08 05:43:47;;;;;;;5.35;4.60;;;;;;;17.73;75.94;101081.66;5020528;28;20030;-48
2022/06/08 05:46:12;;;;;;;5.40;4.90;;;;;;;17.73;75.40;101074.34;5015011;28;20094;-47
2022/06/08 05:48:38;;;;;;;5.95;4.55;;;;;;;17.73;74.50;101079.75;5015509;28;20025;-48
2022/06/08 05:51:03;;;;;;;5.20;4.65;;;;;;;17.82;74.19;101079.94;5007016;28;20430;-47
2022/06/08 05:53:29;;;;;;;5.72;4.78;;;;;;;17.89;74.47;101076.88;5010940;28;20229;-48
2022/06/08 05:55:54;;;;;;;5.32;4.82;;;;;;;17.96;74.45;101074.63;5011937;28;20034;-47
2022/06/08 05:58:20;;;;;;;5.07;4.53;;;;;;;17.99;74.17;101074.88;5015715;28;20033;-48
2022/06/08 06:00:45;;;;;;;7.82;4.72;;;;;;;18.03;73.19;101080.50;5019334;28;20018;-47
2022/06/08 06:03:11;;;;;;;8.32;4.60;;;;;;;18.08;72.32;101075.00;5010431;28;20036;-47
2022/06/08 06:05:39;;;;;;;6.10;4.18;;;;;;;18.16;71.54;101085.25;5024539;28;20086;-47
2022/06/08 06:08:05;;;;;;;5.80;3.85;;;;;;;18.19;70.48;101071.09;5018393;28;20207;-48
2022/06/08 06:10:33;;;;;;;7.82;4.00;;;;;;;18.25;70.50;101077.25;5023052;28;20048;-47
2022/06/08 06:12:59;;;;;;;4.65;4.20;;;;;;;18.32;70.60;101078.53;5019403;28;20064;-47
2022/06/08 06:15:25;;;;;;;10.13;3.78;;;;;;;18.43;70.53;101077.25;5023246;28;20049;-48
2022/06/08 06:17:51;;;;;;;6.63;4.13;;;;;;;18.55;70.72;101079.56;5020014;28;20033;-48
2022/06/08 06:20:17;;;;;;;7.80;3.97;;;;;;;18.75;71.49;101081.19;5021560;28;20033;-47
2022/06/08 06:22:42;;;;;;;8.93;5.10;;;;;;;18.96;72.07;101081.69;5019353;28;20033;-47
2022/06/08 06:25:10;;;;;;;12.13;5.20;;;;;;;19.18;72.50;101084.56;5020317;28;20079;-47
2022/06/08 06:27:35;;;;;;;5.85;4.55;;;;;;;19.36;71.80;101091.06;5023806;28;20018;-47
2022/06/08 06:30:01;;;;;;;7.10;4.93;;;;;;;19.57;71.71;101086.91;5023357;28;20036;-47
2022/06/08 06:32:30;;;;;;;9.80;4.80;;;;;;;19.75;71.44;101084.41;5020530;28;20025;-48
2022/06/08 06:34:58;;;;;;;9.43;4.88;;;;;;;19.83;70.42;101089.16;5021273;28;20022;-48
2022/06/08 06:37:24;;;;;;;9.23;5.10;;;;;;;19.85;69.92;101092.38;5025300;28;20036;-47
2022/06/08 06:39:51;;;;;;;6.03;4.25;;;;;;;19.85;68.93;101086.94;5021026;28;20026;-47
2022/06/08 06:42:19;;;;;;;6.07;4.63;;;;;;;19.82;67.70;101084.81;5021884;28;20116;-47
2022/06/08 06:44:45;;;;;;;11.80;4.95;;;;;;;19.80;66.84;101087.84;5019076;28;20600;-48
2022/06/08 06:47:12;;;;;;;12.60;4.70;;;;;;;19.85;66.85;101084.22;5021795;28;20112;-49
2022/06/08 06:49:37;;;;;;;6.88;4.70;;;;;;;19.99;66.89;101079.59;5024383;28;20021;-48
2022/06/08 06:52:04;;;;;;;7.32;4.95;;;;;;;20.14;66.34;101071.13;5021160;28;20034;-48
2022/06/08 06:54:31;;;;;;;7.85;4.55;;;;;;;20.24;65.58;101072.78;5015973;28;20491;-47
2022/06/08 06:56:57;;;;;;;7.70;3.90;;;;;;;20.30;64.95;101062.63;5020190;28;20029;-48
2022/06/08 06:59:22;;;;;;;6.90;4.75;;;;;;;20.21;63.58;101066.06;5019731;28;20037;-48
2022/06/08 07:01:48;;;;;;;5.32;3.85;;;;;;;20.13;62.55;101069.50;5020989;28;20398;-48
2022/06/08 07:04:16;;;;;;;7.78;4.20;;;;;;;20.12;62.34;101075.25;5016809;28;20475;-47
2022/06/08 07:06:41;;;;;;;6.05;3.90;;;;;;;20.10;62.01;101066.56;5020484;28;20036;-48
2022/06/08 07:09:07;;;;;;;4.70;3.50;;;;;;;20.15;62.11;101064.56;5020300;28;20030;-47
2022/06/08 07:11:33;;;;;;;4.20;3.50;;;;;;;20.21;62.14;101062.53;5018860;28;20080;-48
2022/06/08 07:14:00;;;;;;;7.55;3.97;;;;;;;20.36;61.70;101064.94;5020480;28;20287;-48
2022/06/08 07:16:26;;;;;;;4.15;3.30;;;;;;;20.49;61.61;101074.22;5013327;28;20032;-48
2022/06/08 07:18:52;;;;;;;5.90;4.43;;;;;;;20.51;60.92;101080.94;5016926;28;20430;-48
2022/06/08 07:21:18;;;;;;;5.07;3.55;;;;;;;20.55;60.07;101069.44;5016363;28;20028;-48
2022/06/08 07:23:44;;;;;;;4.35;3.33;;;;;;;20.68;60.22;101069.41;5017236;28;20040;-47
2022/06/08 07:26:10;;;;;;;5.03;3.47;;;;;;;20.79;58.92;101073.47;5014227;28;20017;-48
2022/06/08 07:28:36;;;;;;;3.53;2.72;;;;;;;20.82;58.61;101072.06;5015277;28;20032;-48
2022/06/08 07:31:02;;;;;;;3.78;2.80;;;;;;;20.92;58.62;101062.84;5019686;28;20403;-47
2022/06/08 07:33:28;;;;;;;4.78;3.00;;;;;;;20.98;58.42;101064.31;5012644;28;20033;-48
2022/06/08 07:35:54;;;;;;;3.38;2.70;;;;;;;21.08;58.04;101067.63;5017935;28;20482;-47
2022/06/08 07:38:20;;;;;;;3.03;2.53;;;;;;;21.12;55.33;101060.41;5018471;28;20033;-48
2022/06/08 07:40:45;;;;;;;4.55;2.17;;;;;;;21.14;53.27;101060.09;5019172;28;20026;-47
2022/06/08 07:43:11;;;;;;;3.58;2.78;;;;;;;21.26;52.84;101068.56;5016860;28;20398;-48
2022/06/08 07:45:36;;;;;;;4.07;2.58;;;;;;;21.29;51.55;101058.94;5017351;28;20040;-48
2022/06/08 07:50:47;;;;;;;3.50;2.38;;;;;;;21.30;49.91;101061.34;5020003;28;20112;-48
2022/06/08 07:53:12;;;;;;;3.45;2.30;;;;;;;21.41;49.85;101056.47;5014178;28;20176;-48
2022/06/08 07:55:38;;;;;;;3.20;2.65;;;;;;;21.46;50.17;101050.84;5017766;28;20029;-49
2022/06/08 07:58:03;;;;;;;3.58;2.40;;;;;;;21.63;51.14;101052.88;5013715;28;20033;-47
2022/06/08 08:00:30;;;;;;;2.30;1.92;;;;;;;21.72;50.13;101048.22;5017004;28;20060;-47
2022/06/08 08:02:56;;;;;;;3.67;2.47;;;;;;;21.73;50.94;101044.41;5013396;28;20430;-47
2022/06/08 08:05:22;;;;;;;3.15;2.35;;;;;;;21.76;51.49;101054.69;5016411;28;20474;-47
2022/06/08 08:07:48;;;;;;;3.55;2.40;;;;;;;21.86;51.37;101040.75;5011503;28;20040;-48
2022/06/08 08:10:16;;;;;;;2.50;2.30;;;;;;;21.83;51.08;101052.28;5013330;28;20471;-47
2022/06/08 08:12:42;;;;;;;2.53;2.33;;;;;;;21.86;50.58;101048.13;5015072;28;20036;-47
2022/06/08 08:15:08;;;;;;;3.58;2.40;;;;;;;21.92;50.88;101038.69;5014930;28;20033;-48
2022/06/08 08:17:34;;;;;;;3.58;2.40;;;;;;;22.01;51.01;101042.22;5015680;28;20053;-47
2022/06/08 08:19:59;;;;;;;3.10;2.50;;;;;;;21.91;51.63;101042.53;5016568;28;20203;-48
2022/06/08 08:22:25;;;;;;;4.07;2.80;;;;;;;21.99;51.94;101039.03;5015663;28;20030;-48
2022/06/08 08:24:50;;;;;;;3.30;2.80;;;;;;;22.03;51.96;101040.78;5017145;28;20033;-47
2022/06/08 08:27:16;;;;;;;2.60;2.40;;;;;;;22.14;51.72;101040.53;5013252;28;20044;-47
2022/06/08 08:29:41;;;;;;;2.88;2.67;;;;;;;22.25;51.60;101037.16;5017268;28;20035;-47
2022/06/08 08:32:10;;;;;;;3.03;2.70;;;;;;;22.25;51.18;101030.88;5019327;28;20483;-48
2022/06/08 08:34:37;;;;;;;3.28;2.28;;;;;;;22.24;50.80;101032.81;5015076;28;20029;-48
2022/06/08 08:37:03;;;;;;;3.25;2.50;;;;;;;22.25;50.08;101031.69;5017634;28;20452;-48
2022/06/08 08:39:28;;;;;;;3.47;2.50;;;;;;;22.38;50.49;101031.88;5013114;28;20033;-48
2022/06/08 08:44:48;;;;;;;3.15;1.98;;;;;;;22.62;48.42;101029.47;5011247;28;20164;-47
2022/06/08 08:47:40;;;;;;;5.03;1.67;;;;;;;22.61;47.10;101036.84;5014229;28;20801;-48
2022/06/08 08:50:22;;;;;;;3.33;2.25;;;;;;;22.75;47.22;101044.06;5017462;28;20521;-48
2022/06/08 08:53:09;;;;;;;3.03;1.70;;;;;;;22.68;46.47;101038.31;5011226;28;20029;-48
2022/06/08 08:55:50;;;;;;;1.85;1.70;;;;;;;22.79;46.13;101036.84;5016098;28;20033;-48
2022/06/08 08:58:33;;;;;;;2.45;1.60;;;;;;;22.99;45.85;101038.94;5011014;28;20057;-47
2022/06/08 09:01:12;;;;;;;1.27;1.00;;;;;;;23.08;45.12;101037.00;5015632;28;20383;-48
2022/06/08 09:03:48;;;;;;;1.30;1.20;;;;;;;22.95;44.65;101037.97;5013309;28;20476;-47
2022/06/08 09:06:22;;;;;;;3.00;1.73;;;;;;;22.97;45.67;101041.19;5014809;28;20040;-48
2022/06/08 09:08:51;;;;;;;2.38;1.50;;;;;;;22.84;45.69;101042.19;5015780;28;20044;-47
2022/06/08 09:11:30;;;;;;;2.42;1.40;;;;;;;22.75;45.91;101033.16;5014478;28;20103;-48
2022/06/08 09:13:57;;;;;;;2.10;1.60;;;;;;;22.79;46.73;101031.38;5013375;28;20104;-47
2022/06/08 09:16:35;;;;;;;5.28;1.83;;;;;;;22.92;46.55;101031.22;5010876;28;20487;-47
2022/06/08 09:19:21;;;;;;;2.58;1.83;;;;;;;23.11;46.49;101033.59;5013469;28;20132;-47
2022/06/08 09:21:54;;;;;;;1.95;1.50;;;;;;;23.15;46.40;101026.34;5015772;28;20025;-47
2022/06/08 09:24:29;;;;;;;3.72;1.65;;;;;;;23.18;46.45;101031.19;5015138;28;20128;-49
2022/06/08 09:26:57;;;;;;;3.85;1.52;;;;;;;23.09;46.35;101030.41;5017564;28;20029;-48
2022/06/08 09:29:29;;;;;;;3.42;1.45;;;;;;;23.07;46.62;101031.84;5019126;28;20036;-48
2022/06/08 09:31:55;;;;;;;3.85;1.20;;;;;;;22.94;46.15;101030.91;5016332;28;20037;-48
2022/06/08 09:34:27;;;;;;;2.55;1.58;;;;;;;23.04;46.56;101018.84;5019556;28;20033;-48
2022/06/08 09:37:11;;;;;;;2.80;1.88;;;;;;;23.16;45.57;101021.69;5019870;28;20025;-48
2022/06/08 09:39:44;;;;;;;1.73;1.45;;;;;;;23.31;46.64;101023.09;5019371;28;20029;-47
2022/06/08 09:42:28;;;;;;;2.95;1.60;;;;;;;23.24;45.71;101028.28;5012628;28;20044;-49
2022/06/08 09:45:04;;;;;;;1.98;1.73;;;;;;;23.26;46.12;101020.53;5017392;28;20056;-47
2022/06/08 09:51:32;;;;;;;2.75;1.63;;;;;;;23.02;45.77;101013.72;5016864;28;20126;-47
2022/06/08 09:54:29;;;;;;;2.80;2.03;;;;;;;23.19;47.20;101012.84;5017713;28;20050;-47
2022/06/08 09:57:08;;;;;;;3.08;1.55;;;;;;;23.44;47.14;101005.69;4997129;28;20103;-48
2022/06/08 09:59:36;;;;;;;4.30;2.10;;;;;;;23.57;46.70;101003.88;5018800;28;20033;-48
2022/06/08 10:02:25;;;;;;;2.45;1.60;;;;;;;23.56;46.30;101000.31;5018904;28;20044;-48
2022/06/08 10:04:53;;;;;;;4.10;1.90;;;;;;;23.54;46.92;100991.66;5016421;28;20059;-48
2022/06/08 10:07:45;;;;;;;2.60;1.60;;;;;;;23.24;45.80;100990.00;5018852;28;20033;-49
2022/06/08 10:10:31;;;;;;;2.13;1.58;;;;;;;23.46;46.92;100982.34;5017021;28;20029;-48
2022/06/08 10:13:14;;;;;;;2.55;1.90;;;;;;;23.68;46.38;100981.28;5015871;28;20387;-48
2022/06/08 10:15:46;;;;;;;1.90;1.73;;;;;;;23.96;48.09;100962.44;5016336;28;20027;-48
2022/06/08 10:18:33;;;;;;;3.13;1.92;;;;;;;24.17;46.78;100958.91;5014574;28;20030;-48
2022/06/08 10:21:23;;;;;;;2.42;2.08;;;;;;;24.18;45.36;100966.78;5017539;28;20026;-48
2022/06/08 10:24:36;;;;;;;2.50;1.60;;;;;;;24.17;45.22;100964.38;5016462;28;20132;-47
2022/06/08 10:27:05;;;;;;;2.10;1.65;;;;;;;24.33;45.58;100959.94;4997912;28;20041;-48
2022/06/08 10:29:40;;;;;;;2.53;1.70;;;;;;;24.38;45.66;100956.97;5011960;28;20484;-47
2022/06/08 10:32:19;;;;;;;3.38;1.80;;;;;;;24.46;45.65;100952.59;5015011;28;20521;-48
2022/06/08 10:34:51;;;;;;;1.70;1.50;;;;;;;24.55;45.49;100956.03;5011621;28;20052;-47
2022/06/08 10:37:22;;;;;;;2.63;1.60;;;;;;;24.55;45.33;100945.88;5014757;28;20562;-48
2022/06/08 10:39:50;;;;;;;4.00;1.77;;;;;;;24.58;44.52;100958.09;5018122;28;20026;-48
2022/06/08 10:42:39;;;;;;;1.52;1.42;;;;;;;24.58;44.13;100949.88;5013118;28;20033;-47
2022/06/08 10:45:23;;;;;;;2.20;1.80;;;;;;;24.46;43.58;100947.91;5013226;28;20030;-48
2022/06/08 10:47:57;;;;;;;4.00;1.67;;;;;;;24.53;44.50;100939.13;5015843;28;20040;-48
2022/06/08 10:50:46;;;;;;;2.63;1.80;;;;;;;24.59;43.39;100944.03;5012935;28;20042;-49
2022/06/08 10:56:23;;;;;;;1.98;1.75;;;;;;;24.64;43.92;100937.59;5015094;28;20553;-48
2022/06/08 10:59:12;;;;;;;1.90;1.70;;;;;;;24.71;44.07;100935.06;5015413;28;20040;-48
2022/06/08 11:01:49;;;;;;;1.98;1.70;;;;;;;24.77;43.95;100930.97;5016852;28;20501;-47
2022/06/08 11:04:30;;;;;;;1.98;1.70;;;;;;;24.90;44.17;100927.13;5012356;28;20116;-48
2022/06/08 11:07:10;;;;;;;2.10;1.90;;;;;;;25.07;43.48;100926.16;5018334;28;20281;-48
2022/06/08 11:09:36;;;;;;;2.65;1.90;;;;;;;25.05;44.45;100925.69;5016133;28;20029;-49
2022/06/08 11:12:29;;;;;;;3.45;1.75;;;;;;;25.01;44.67;100922.03;5015438;28;20075;-48
2022/06/08 11:15:00;;;;;;;2.13;2.03;;;;;;;25.10;44.16;100921.91;5017603;28;20037;-48
2022/06/08 11:17:34;;;;;;;1.60;1.50;;;;;;;25.20;45.27;100918.75;5016315;28;20022;-48
2022/06/08 11:20:38;;;;;;;1.63;1.40;;;;;;;25.34;44.06;100919.19;5018387;28;20029;-48
2022/06/08 11:23:35;;;;;;;1.85;1.63;;;;;;;25.16;43.90;100920.56;5033599;22;20115;-43
2022/06/08 11:26:04;;;;;;;3.00;1.65;;;;;;;25.04;45.02;100912.31;5045489;28;20116;-40
2022/06/08 11:28:43;;;;;;;1.30;1.20;;;;;;;24.99;43.64;100910.59;5039502;28;20033;-42
2022/06/08 11:31:29;;;;;;;2.50;1.50;;;;;;;24.86;43.38;100909.75;5039302;28;20028;-42
2022/06/08 11:34:10;;;;;;;2.55;1.70;;;;;;;24.66;44.47;100916.13;5030476;28;20092;-41
2022/06/08 11:36:50;;;;;;;1.80;1.70;;;;;;;24.58;44.88;100912.31;5042105;28;20033;-42
2022/06/08 11:39:46;;;;;;;2.67;1.42;;;;;;;24.81;44.45;100906.44;5036707;28;20021;-42
2022/06/08 11:42:48;;;;;;;1.85;1.60;;;;;;;25.03;44.30;100906.03;5035561;28;20037;-41
2022/06/08 11:45:23;;;;;;;1.58;1.45;;;;;;;25.00;43.75;100907.53;5040736;28;20047;-41
2022/06/08 11:47:49;;;;;;;4.43;1.67;;;;;;;24.91;44.12;100901.31;5035626;28;21753;-41
2022/06/08 11:50:22;;;;;;;3.05;2.03;;;;;;;24.87;44.35;100902.34;5041720;28;20033;-41
2022/06/08 11:53:00;;;;;;;1.77;1.40;;;;;;;25.09;43.65;100899.19;5035494;28;20123;-41
2022/06/08 11:55:27;;;;;;;1.77;1.40;;;;;;;25.36;43.82;100899.66;5042829;28;20033;-41
2022/06/08 11:57:58;;;;;;;1.85;1.30;;;;;;;25.32;43.18;100891.31;5042566;28;20024;-42
2022/06/08 12:00:26;;;;;;;2.05;1.30;;;;;;;25.21;43.41;100890.19;5039144;28;20049;-43
2022/06/08 12:03:23;;;;;;;4.07;1.33;;;;;;;24.91;43.60;100893.09;5037360;28;20028;-41